sensor_id;sensor_type;location;lat;lon;timestamp;P1;durP1;ratioP1;P2;durP2;ratioP2
32146;SDS011;32190;49.112;8.598;2023-05-10T00:01:58;0.20;;;0.20;;
32146;SDS011;32190;49.112;8.598;2023-05-10T00:07:48;0.25;;;0.25;;
32146;SDS011;32190;49.112;8.598;2023-05-10T00:13:39;0.25;;;0.25;;
32146;SDS011;32190;49.112;8.598;2023-05-10T00:19:30;0.15;;;0.15;;
32146;SDS011;32190;49.112;8.598;2023-05-10T00:25:20;0.40;;;0.40;;
32146;SDS011;32190;49.112;8.598;2023-05-10T00:31:14;1.27;;;0.20;;
32146;SDS011;32190;49.112;8.598;2023-05-10T00:37:04;0.30;;;0.30;;
32146;SDS011;32190;49.112;8.598;2023-05-10T00:42:55;0.98;;;0.95;;
32146;SDS011;32190;49.112;8.598;2023-05-10T00:48:46;0.30;;;0.30;;
32146;SDS011;32190;49.112;8.598;2023-05-10T00:54:37;0.52;;;0.30;;
32146;SDS011;32190;49.112;8.598;2023-05-10T01:00:28;0.28;;;0.20;;
32146;SDS011;32190;49.112;8.598;2023-05-10T01:06:19;1.45;;;0.35;;
32146;SDS011;32190;49.112;8.598;2023-05-10T01:12:10;0.20;;;0.20;;
32146;SDS011;32190;49.112;8.598;2023-05-10T01:18:00;0.20;;;0.20;;
32146;SDS011;32190;49.112;8.598;2023-05-10T01:24:02;0.30;;;0.30;;
32146;SDS011;32190;49.112;8.598;2023-05-10T01:36:54;0.20;;;0.20;;
32146;SDS011;32190;49.112;8.598;2023-05-10T01:42:53;0.30;;;0.25;;
32146;SDS011;32190;49.112;8.598;2023-05-10T01:48:47;0.30;;;0.30;;
32146;SDS011;32190;49.112;8.598;2023-05-10T01:54:42;0.95;;;0.30;;
32146;SDS011;32190;49.112;8.598;2023-05-10T02:06:33;0.38;;;0.32;;
32146;SDS011;32190;49.112;8.598;2023-05-10T02:12:25;0.77;;;0.35;;
32146;SDS011;32190;49.112;8.598;2023-05-10T02:18:17;0.30;;;0.30;;
32146;SDS011;32190;49.112;8.598;2023-05-10T02:24:09;0.30;;;0.30;;
32146;SDS011;32190;49.112;8.598;2023-05-10T02:30:01;0.28;;;0.28;;
32146;SDS011;32190;49.112;8.598;2023-05-10T02:35:52;0.30;;;0.30;;
32146;SDS011;32190;49.112;8.598;2023-05-10T02:41:43;0.40;;;0.40;;
32146;SDS011;32190;49.112;8.598;2023-05-10T02:47:36;0.40;;;0.40;;
32146;SDS011;32190;49.112;8.598;2023-05-10T02:53:30;0.30;;;0.30;;
32146;SDS011;32190;49.112;8.598;2023-05-10T02:59:23;0.20;;;0.20;;
32146;SDS011;32190;49.112;8.598;2023-05-10T03:05:13;0.30;;;0.30;;
32146;SDS011;32190;49.112;8.598;2023-05-10T03:23:22;0.50;;;0.50;;
32146;SDS011;32190;49.112;8.598;2023-05-10T03:29:19;0.90;;;0.70;;
32146;SDS011;32190;49.112;8.598;2023-05-10T03:35:12;0.57;;;0.57;;
32146;SDS011;32190;49.112;8.598;2023-05-10T03:41:05;1.02;;;1.02;;
32146;SDS011;32190;49.112;8.598;2023-05-10T03:46:56;0.63;;;0.63;;
32146;SDS011;32190;49.112;8.598;2023-05-10T03:52:46;0.65;;;0.65;;
32146;SDS011;32190;49.112;8.598;2023-05-10T03:58:38;0.60;;;0.60;;
32146;SDS011;32190;49.112;8.598;2023-05-10T04:04:28;0.77;;;0.77;;
32146;SDS011;32190;49.112;8.598;2023-05-10T04:10:19;0.88;;;0.65;;
32146;SDS011;32190;49.112;8.598;2023-05-10T04:16:11;0.65;;;0.65;;
32146;SDS011;32190;49.112;8.598;2023-05-10T04:22:02;4.40;;;0.63;;
32146;SDS011;32190;49.112;8.598;2023-05-10T04:27:53;0.60;;;0.60;;
32146;SDS011;32190;49.112;8.598;2023-05-10T04:33:43;0.60;;;0.60;;
32146;SDS011;32190;49.112;8.598;2023-05-10T04:39:34;0.80;;;0.80;;
32146;SDS011;32190;49.112;8.598;2023-05-10T04:45:25;0.68;;;0.68;;
32146;SDS011;32190;49.112;8.598;2023-05-10T04:51:15;2.30;;;1.00;;
32146;SDS011;32190;49.112;8.598;2023-05-10T04:57:06;0.85;;;0.60;;
32146;SDS011;32190;49.112;8.598;2023-05-10T05:02:56;0.57;;;0.57;;
32146;SDS011;32190;49.112;8.598;2023-05-10T05:08:47;0.60;;;0.60;;
32146;SDS011;32190;49.112;8.598;2023-05-10T05:14:39;0.60;;;0.60;;
32146;SDS011;32190;49.112;8.598;2023-05-10T05:20:34;1.85;;;0.70;;
32146;SDS011;32190;49.112;8.598;2023-05-10T05:26:24;0.82;;;0.82;;
32146;SDS011;32190;49.112;8.598;2023-05-10T05:32:16;0.77;;;0.77;;
32146;SDS011;32190;49.112;8.598;2023-05-10T05:38:07;0.50;;;0.50;;
32146;SDS011;32190;49.112;8.598;2023-05-10T05:43:57;1.60;;;0.60;;
32146;SDS011;32190;49.112;8.598;2023-05-10T05:49:48;0.85;;;0.85;;
32146;SDS011;32190;49.112;8.598;2023-05-10T05:55:38;0.70;;;0.70;;
32146;SDS011;32190;49.112;8.598;2023-05-10T06:01:29;0.85;;;0.70;;
32146;SDS011;32190;49.112;8.598;2023-05-10T06:07:20;0.73;;;0.73;;
32146;SDS011;32190;49.112;8.598;2023-05-10T06:13:10;0.93;;;0.70;;
32146;SDS011;32190;49.112;8.598;2023-05-10T06:19:01;0.50;;;0.50;;
32146;SDS011;32190;49.112;8.598;2023-05-10T06:24:52;0.68;;;0.60;;
32146;SDS011;32190;49.112;8.598;2023-05-10T06:30:43;1.13;;;0.70;;
32146;SDS011;32190;49.112;8.598;2023-05-10T06:36:34;0.50;;;0.50;;
32146;SDS011;32190;49.112;8.598;2023-05-10T06:42:24;0.47;;;0.40;;
32146;SDS011;32190;49.112;8.598;2023-05-10T06:48:15;1.85;;;0.63;;
32146;SDS011;32190;49.112;8.598;2023-05-10T06:54:06;0.40;;;0.40;;
32146;SDS011;32190;49.112;8.598;2023-05-10T06:59:57;0.43;;;0.43;;
32146;SDS011;32190;49.112;8.598;2023-05-10T07:05:48;0.65;;;0.40;;
32146;SDS011;32190;49.112;8.598;2023-05-10T07:11:39;0.30;;;0.30;;
32146;SDS011;32190;49.112;8.598;2023-05-10T07:17:29;0.68;;;0.30;;
32146;SDS011;32190;49.112;8.598;2023-05-10T07:23:20;0.30;;;0.30;;
32146;SDS011;32190;49.112;8.598;2023-05-10T07:29:11;0.40;;;0.40;;
32146;SDS011;32190;49.112;8.598;2023-05-10T07:35:01;0.30;;;0.30;;
32146;SDS011;32190;49.112;8.598;2023-05-10T07:40:53;0.30;;;0.30;;
32146;SDS011;32190;49.112;8.598;2023-05-10T07:46:43;0.30;;;0.30;;
32146;SDS011;32190;49.112;8.598;2023-05-10T07:52:34;0.30;;;0.30;;
32146;SDS011;32190;49.112;8.598;2023-05-10T07:58:24;0.20;;;0.20;;
32146;SDS011;32190;49.112;8.598;2023-05-10T08:04:15;0.32;;;0.32;;
32146;SDS011;32190;49.112;8.598;2023-05-10T08:10:06;0.40;;;0.40;;
32146;SDS011;32190;49.112;8.598;2023-05-10T08:15:57;0.50;;;0.50;;
32146;SDS011;32190;49.112;8.598;2023-05-10T08:21:48;0.30;;;0.30;;
32146;SDS011;32190;49.112;8.598;2023-05-10T08:27:38;0.30;;;0.30;;
32146;SDS011;32190;49.112;8.598;2023-05-10T08:33:29;0.40;;;0.30;;
32146;SDS011;32190;49.112;8.598;2023-05-10T08:39:20;0.50;;;0.50;;
32146;SDS011;32190;49.112;8.598;2023-05-10T08:45:10;0.30;;;0.30;;
32146;SDS011;32190;49.112;8.598;2023-05-10T08:51:02;0.80;;;0.30;;
32146;SDS011;32190;49.112;8.598;2023-05-10T08:56:53;0.30;;;0.30;;
32146;SDS011;32190;49.112;8.598;2023-05-10T09:02:44;0.22;;;0.22;;
32146;SDS011;32190;49.112;8.598;2023-05-10T09:08:35;0.30;;;0.30;;
32146;SDS011;32190;49.112;8.598;2023-05-10T09:14:27;0.30;;;0.30;;
32146;SDS011;32190;49.112;8.598;2023-05-10T09:20:18;0.30;;;0.30;;
32146;SDS011;32190;49.112;8.598;2023-05-10T09:26:10;0.85;;;0.40;;
32146;SDS011;32190;49.112;8.598;2023-05-10T09:32:00;0.50;;;0.50;;
32146;SDS011;32190;49.112;8.598;2023-05-10T09:37:52;0.30;;;0.30;;
32146;SDS011;32190;49.112;8.598;2023-05-10T09:43:44;0.20;;;0.20;;
32146;SDS011;32190;49.112;8.598;2023-05-10T09:49:35;0.20;;;0.20;;
32146;SDS011;32190;49.112;8.598;2023-05-10T09:55:26;0.30;;;0.30;;
32146;SDS011;32190;49.112;8.598;2023-05-10T10:01:31;1.40;;;0.40;;
32146;SDS011;32190;49.112;8.598;2023-05-10T10:07:23;0.20;;;0.20;;
32146;SDS011;32190;49.112;8.598;2023-05-10T10:13:17;0.20;;;0.20;;
32146;SDS011;32190;49.112;8.598;2023-05-10T10:19:07;0.60;;;0.40;;
32146;SDS011;32190;49.112;8.598;2023-05-10T10:24:58;0.25;;;0.25;;
32146;SDS011;32190;49.112;8.598;2023-05-10T10:30:50;0.17;;;0.17;;
32146;SDS011;32190;49.112;8.598;2023-05-10T10:36:43;0.30;;;0.30;;
32146;SDS011;32190;49.112;8.598;2023-05-10T10:42:45;0.75;;;0.30;;
32146;SDS011;32190;49.112;8.598;2023-05-10T10:48:37;0.20;;;0.20;;
32146;SDS011;32190;49.112;8.598;2023-05-10T10:54:28;0.30;;;0.30;;
32146;SDS011;32190;49.112;8.598;2023-05-10T11:00:22;0.30;;;0.30;;
32146;SDS011;32190;49.112;8.598;2023-05-10T11:06:29;0.30;;;0.30;;
32146;SDS011;32190;49.112;8.598;2023-05-10T11:12:23;0.30;;;0.30;;
32146;SDS011;32190;49.112;8.598;2023-05-10T11:18:20;0.50;;;0.45;;
32146;SDS011;32190;49.112;8.598;2023-05-10T11:24:19;0.50;;;0.40;;
32146;SDS011;32190;49.112;8.598;2023-05-10T11:30:12;0.45;;;0.40;;
32146;SDS011;32190;49.112;8.598;2023-05-10T11:36:03;1.35;;;0.30;;
32146;SDS011;32190;49.112;8.598;2023-05-10T11:41:54;0.68;;;0.47;;
32146;SDS011;32190;49.112;8.598;2023-05-10T11:47:48;0.40;;;0.40;;
32146;SDS011;32190;49.112;8.598;2023-05-10T11:53:39;0.40;;;0.40;;
32146;SDS011;32190;49.112;8.598;2023-05-10T11:59:29;1.75;;;0.50;;
32146;SDS011;32190;49.112;8.598;2023-05-10T12:05:20;2.13;;;0.38;;
32146;SDS011;32190;49.112;8.598;2023-05-10T12:11:11;0.35;;;0.35;;
32146;SDS011;32190;49.112;8.598;2023-05-10T12:17:03;0.45;;;0.30;;
32146;SDS011;32190;49.112;8.598;2023-05-10T12:22:55;1.00;;;0.38;;
32146;SDS011;32190;49.112;8.598;2023-05-10T12:28:48;0.82;;;0.30;;
32146;SDS011;32190;49.112;8.598;2023-05-10T12:34:39;0.20;;;0.20;;
32146;SDS011;32190;49.112;8.598;2023-05-10T12:40:29;0.57;;;0.40;;
32146;SDS011;32190;49.112;8.598;2023-05-10T12:46:20;0.30;;;0.30;;
32146;SDS011;32190;49.112;8.598;2023-05-10T12:52:10;0.20;;;0.20;;
32146;SDS011;32190;49.112;8.598;2023-05-10T12:58:01;0.38;;;0.32;;
32146;SDS011;32190;49.112;8.598;2023-05-10T13:03:51;0.30;;;0.30;;
32146;SDS011;32190;49.112;8.598;2023-05-10T13:09:42;0.38;;;0.38;;
32146;SDS011;32190;49.112;8.598;2023-05-10T13:15:33;0.40;;;0.40;;
32146;SDS011;32190;49.112;8.598;2023-05-10T13:21:24;0.98;;;0.30;;
32146;SDS011;32190;49.112;8.598;2023-05-10T13:27:15;2.22;;;0.40;;
32146;SDS011;32190;49.112;8.598;2023-05-10T13:33:05;1.98;;;0.50;;
32146;SDS011;32190;49.112;8.598;2023-05-10T13:38:56;0.50;;;0.50;;
32146;SDS011;32190;49.112;8.598;2023-05-10T13:44:46;0.30;;;0.30;;
32146;SDS011;32190;49.112;8.598;2023-05-10T13:50:37;0.40;;;0.40;;
32146;SDS011;32190;49.112;8.598;2023-05-10T13:56:28;0.40;;;0.40;;
32146;SDS011;32190;49.112;8.598;2023-05-10T14:02:19;0.35;;;0.30;;
32146;SDS011;32190;49.112;8.598;2023-05-10T14:08:10;0.40;;;0.40;;
32146;SDS011;32190;49.112;8.598;2023-05-10T14:14:00;0.43;;;0.20;;
32146;SDS011;32190;49.112;8.598;2023-05-10T14:19:52;0.85;;;0.30;;
32146;SDS011;32190;49.112;8.598;2023-05-10T14:25:43;0.22;;;0.20;;
32146;SDS011;32190;49.112;8.598;2023-05-10T14:31:33;0.25;;;0.25;;
32146;SDS011;32190;49.112;8.598;2023-05-10T14:37:24;0.38;;;0.38;;
32146;SDS011;32190;49.112;8.598;2023-05-10T14:43:15;0.20;;;0.20;;
32146;SDS011;32190;49.112;8.598;2023-05-10T14:49:06;0.30;;;0.30;;
32146;SDS011;32190;49.112;8.598;2023-05-10T14:54:57;0.22;;;0.20;;
32146;SDS011;32190;49.112;8.598;2023-05-10T15:00:49;0.20;;;0.20;;
32146;SDS011;32190;49.112;8.598;2023-05-10T15:06:39;0.30;;;0.20;;
32146;SDS011;32190;49.112;8.598;2023-05-10T15:12:30;0.22;;;0.20;;
32146;SDS011;32190;49.112;8.598;2023-05-10T15:18:21;0.77;;;0.35;;
32146;SDS011;32190;49.112;8.598;2023-05-10T15:24:12;0.20;;;0.20;;
32146;SDS011;32190;49.112;8.598;2023-05-10T15:30:02;0.38;;;0.20;;
32146;SDS011;32190;49.112;8.598;2023-05-10T15:35:53;1.40;;;0.20;;
32146;SDS011;32190;49.112;8.598;2023-05-10T15:41:44;0.20;;;0.20;;
32146;SDS011;32190;49.112;8.598;2023-05-10T15:47:35;0.20;;;0.20;;
32146;SDS011;32190;49.112;8.598;2023-05-10T15:53:26;0.68;;;0.20;;
32146;SDS011;32190;49.112;8.598;2023-05-10T15:59:16;0.60;;;0.30;;
32146;SDS011;32190;49.112;8.598;2023-05-10T16:05:07;0.10;;;0.10;;
32146;SDS011;32190;49.112;8.598;2023-05-10T16:10:59;0.13;;;0.13;;
32146;SDS011;32190;49.112;8.598;2023-05-10T16:16:49;1.35;;;0.30;;
32146;SDS011;32190;49.112;8.598;2023-05-10T16:22:41;0.20;;;0.20;;
32146;SDS011;32190;49.112;8.598;2023-05-10T16:28:33;0.20;;;0.20;;
32146;SDS011;32190;49.112;8.598;2023-05-10T16:34:24;0.10;;;0.10;;
32146;SDS011;32190;49.112;8.598;2023-05-10T16:40:14;0.85;;;0.30;;
32146;SDS011;32190;49.112;8.598;2023-05-10T16:46:08;0.60;;;0.20;;
32146;SDS011;32190;49.112;8.598;2023-05-10T16:52:00;0.20;;;0.20;;
32146;SDS011;32190;49.112;8.598;2023-05-10T16:57:50;0.13;;;0.10;;
32146;SDS011;32190;49.112;8.598;2023-05-10T17:03:41;0.10;;;0.10;;
32146;SDS011;32190;49.112;8.598;2023-05-10T17:09:31;0.20;;;0.10;;
32146;SDS011;32190;49.112;8.598;2023-05-10T17:15:22;0.20;;;0.17;;
32146;SDS011;32190;49.112;8.598;2023-05-10T17:21:13;0.13;;;0.13;;
32146;SDS011;32190;49.112;8.598;2023-05-10T17:27:03;0.10;;;0.10;;
32146;SDS011;32190;49.112;8.598;2023-05-10T17:32:54;0.10;;;0.10;;
32146;SDS011;32190;49.112;8.598;2023-05-10T17:38:45;0.10;;;0.10;;
32146;SDS011;32190;49.112;8.598;2023-05-10T17:44:35;0.17;;;0.17;;
32146;SDS011;32190;49.112;8.598;2023-05-10T17:50:26;0.13;;;0.13;;
32146;SDS011;32190;49.112;8.598;2023-05-10T17:56:24;0.20;;;0.20;;
32146;SDS011;32190;49.112;8.598;2023-05-10T18:02:15;0.10;;;0.10;;
32146;SDS011;32190;49.112;8.598;2023-05-10T18:08:05;0.13;;;0.10;;
32146;SDS011;32190;49.112;8.598;2023-05-10T18:13:57;0.10;;;0.10;;
32146;SDS011;32190;49.112;8.598;2023-05-10T18:19:47;0.60;;;0.20;;
32146;SDS011;32190;49.112;8.598;2023-05-10T18:25:38;0.10;;;0.10;;
32146;SDS011;32190;49.112;8.598;2023-05-10T18:31:28;0.10;;;0.10;;
32146;SDS011;32190;49.112;8.598;2023-05-10T18:37:19;0.30;;;0.30;;
32146;SDS011;32190;49.112;8.598;2023-05-10T18:43:09;0.20;;;0.15;;
32146;SDS011;32190;49.112;8.598;2023-05-10T18:49:00;0.20;;;0.20;;
32146;SDS011;32190;49.112;8.598;2023-05-10T18:54:51;0.45;;;0.20;;
32146;SDS011;32190;49.112;8.598;2023-05-10T19:00:42;0.10;;;0.10;;
32146;SDS011;32190;49.112;8.598;2023-05-10T19:06:32;1.65;;;0.20;;
32146;SDS011;32190;49.112;8.598;2023-05-10T19:12:23;0.15;;;0.15;;
32146;SDS011;32190;49.112;8.598;2023-05-10T19:18:14;0.32;;;0.20;;
32146;SDS011;32190;49.112;8.598;2023-05-10T19:24:05;0.10;;;0.10;;
32146;SDS011;32190;49.112;8.598;2023-05-10T19:29:56;0.20;;;0.20;;
32146;SDS011;32190;49.112;8.598;2023-05-10T19:35:48;0.13;;;0.13;;
32146;SDS011;32190;49.112;8.598;2023-05-10T19:41:41;0.10;;;0.10;;
32146;SDS011;32190;49.112;8.598;2023-05-10T19:47:31;0.20;;;0.20;;
32146;SDS011;32190;49.112;8.598;2023-05-10T19:53:23;0.10;;;0.10;;
32146;SDS011;32190;49.112;8.598;2023-05-10T19:59:14;0.20;;;0.20;;
32146;SDS011;32190;49.112;8.598;2023-05-10T20:05:04;0.20;;;0.20;;
32146;SDS011;32190;49.112;8.598;2023-05-10T20:10:55;0.28;;;0.17;;
32146;SDS011;32190;49.112;8.598;2023-05-10T20:16:51;1.35;;;0.20;;
32146;SDS011;32190;49.112;8.598;2023-05-10T20:22:42;0.20;;;0.20;;
32146;SDS011;32190;49.112;8.598;2023-05-10T20:28:33;0.17;;;0.17;;
32146;SDS011;32190;49.112;8.598;2023-05-10T20:34:24;0.30;;;0.20;;
32146;SDS011;32190;49.112;8.598;2023-05-10T20:40:14;0.20;;;0.20;;
32146;SDS011;32190;49.112;8.598;2023-05-10T20:46:05;0.20;;;0.20;;
32146;SDS011;32190;49.112;8.598;2023-05-10T20:51:56;1.23;;;0.20;;
32146;SDS011;32190;49.112;8.598;2023-05-10T20:57:47;0.22;;;0.22;;
32146;SDS011;32190;49.112;8.598;2023-05-10T21:03:38;1.25;;;0.20;;
32146;SDS011;32190;49.112;8.598;2023-05-10T21:09:28;1.35;;;0.28;;
32146;SDS011;32190;49.112;8.598;2023-05-10T21:15:19;0.30;;;0.30;;
32146;SDS011;32190;49.112;8.598;2023-05-10T21:21:11;0.57;;;0.20;;
32146;SDS011;32190;49.112;8.598;2023-05-10T21:27:02;0.43;;;0.30;;
32146;SDS011;32190;49.112;8.598;2023-05-10T21:32:53;0.40;;;0.20;;
32146;SDS011;32190;49.112;8.598;2023-05-10T21:38:48;0.30;;;0.30;;
32146;SDS011;32190;49.112;8.598;2023-05-10T21:44:39;0.40;;;0.20;;
32146;SDS011;32190;49.112;8.598;2023-05-10T21:50:30;0.20;;;0.20;;
32146;SDS011;32190;49.112;8.598;2023-05-10T21:56:20;0.55;;;0.30;;
32146;SDS011;32190;49.112;8.598;2023-05-10T22:02:11;0.20;;;0.20;;
32146;SDS011;32190;49.112;8.598;2023-05-10T22:08:02;0.40;;;0.22;;
32146;SDS011;32190;49.112;8.598;2023-05-10T22:13:52;0.13;;;0.13;;
32146;SDS011;32190;49.112;8.598;2023-05-10T22:19:43;0.93;;;0.43;;
32146;SDS011;32190;49.112;8.598;2023-05-10T22:25:33;0.20;;;0.20;;
32146;SDS011;32190;49.112;8.598;2023-05-10T22:31:24;0.22;;;0.22;;
32146;SDS011;32190;49.112;8.598;2023-05-10T22:37:15;1.27;;;0.30;;
32146;SDS011;32190;49.112;8.598;2023-05-10T22:43:06;0.32;;;0.30;;
32146;SDS011;32190;49.112;8.598;2023-05-10T22:48:57;0.20;;;0.20;;
32146;SDS011;32190;49.112;8.598;2023-05-10T22:54:48;0.20;;;0.20;;
32146;SDS011;32190;49.112;8.598;2023-05-10T23:00:39;0.30;;;0.30;;
32146;SDS011;32190;49.112;8.598;2023-05-10T23:06:29;0.20;;;0.20;;
32146;SDS011;32190;49.112;8.598;2023-05-10T23:12:20;0.10;;;0.10;;
32146;SDS011;32190;49.112;8.598;2023-05-10T23:18:10;0.20;;;0.20;;
32146;SDS011;32190;49.112;8.598;2023-05-10T23:24:02;0.20;;;0.20;;
32146;SDS011;32190;49.112;8.598;2023-05-10T23:29:52;0.40;;;0.40;;
32146;SDS011;32190;49.112;8.598;2023-05-10T23:35:44;0.30;;;0.30;;
32146;SDS011;32190;49.112;8.598;2023-05-10T23:41:35;0.20;;;0.20;;
32146;SDS011;32190;49.112;8.598;2023-05-10T23:47:26;0.32;;;0.30;;
32146;SDS011;32190;49.112;8.598;2023-05-10T23:53:16;0.30;;;0.30;;
32146;SDS011;32190;49.112;8.598;2023-05-10T23:59:07;0.22;;;0.20;;
